createdAt,value
2018-12-12T00:00:49.616Z,47.73
2018-12-12T00:03:18.202Z,47.52
2018-12-12T00:05:45.405Z,46.84
2018-12-12T00:08:13.274Z,46.95
2018-12-12T00:10:39.972Z,47.09
2018-12-12T00:13:08.030Z,46.36
2018-12-12T00:15:36.272Z,46.77
2018-12-12T00:18:03.486Z,46.76
2018-12-12T00:20:30.596Z,46.29
2018-12-12T00:22:57.623Z,46.20
2018-12-12T00:25:24.979Z,46.62
2018-12-12T00:27:52.081Z,46.32
2018-12-12T00:30:19.813Z,46.24
2018-12-12T00:32:46.265Z,46.20
2018-12-12T00:35:13.377Z,45.71
2018-12-12T00:37:40.683Z,45.22
2018-12-12T00:40:07.261Z,45.06
2018-12-12T00:42:33.694Z,45.25
2018-12-12T00:45:00.982Z,45.70
2018-12-12T00:47:28.174Z,44.57
2018-12-12T00:49:55.126Z,44.75
2018-12-12T00:52:21.929Z,45.12
2018-12-12T00:54:49.410Z,45.87
2018-12-12T00:57:16.004Z,45.55
2018-12-12T00:59:44.001Z,45.93
2018-12-12T01:02:13.157Z,46.02
2018-12-12T01:04:39.936Z,46.22
2018-12-12T01:07:07.372Z,46.56
2018-12-12T01:09:34.562Z,46.25
2018-12-12T01:12:01.830Z,45.79
2018-12-12T01:14:28.933Z,45.48
2018-12-12T01:16:56.110Z,44.51
2018-12-12T01:19:24.011Z,44.70
2018-12-12T01:21:51.866Z,44.64
2018-12-12T01:24:18.857Z,44.27
2018-12-12T01:26:45.997Z,44.44
2018-12-12T01:29:13.714Z,44.51
2018-12-12T01:34:13.591Z,43.85
2018-12-12T01:36:40.878Z,43.04
2018-12-12T01:39:08.269Z,43.54
2018-12-12T01:41:36.399Z,43.90
2018-12-12T01:44:04.656Z,43.46
2018-12-12T01:49:05.239Z,43.72
2018-12-12T01:51:33.869Z,43.66
2018-12-12T01:54:00.667Z,44.55
2018-12-12T01:56:28.446Z,44.06
2018-12-12T01:58:55.463Z,44.03
2018-12-12T02:01:27.107Z,43.99
2018-12-12T02:03:55.966Z,43.89
2018-12-12T02:06:23.669Z,43.87
2018-12-12T02:08:50.341Z,44.04
2018-12-12T02:24:25.541Z,43.97
2018-12-12T02:26:52.768Z,43.80
2018-12-12T02:29:19.875Z,43.56
2018-12-12T02:31:47.780Z,44.10
2018-12-12T02:34:14.928Z,43.64
2018-12-12T02:36:42.184Z,43.55
2018-12-12T02:39:11.121Z,43.14
2018-12-12T02:41:38.384Z,42.47
2018-12-12T02:44:05.469Z,42.34
2018-12-12T02:46:33.412Z,42.27
2018-12-12T02:49:01.119Z,42.64
2018-12-12T02:51:28.255Z,42.13
2018-12-12T02:53:55.275Z,42.18
2018-12-12T02:56:22.416Z,42.04
2018-12-12T02:58:49.502Z,41.63
2018-12-12T03:01:16.773Z,41.41
2018-12-12T03:03:43.790Z,42.13
2018-12-12T03:06:13.299Z,42.07
2018-12-12T03:08:41.322Z,41.42
2018-12-12T03:11:08.314Z,40.87
2018-12-12T03:13:35.555Z,40.84
2018-12-12T03:16:03.071Z,40.36
2018-12-12T03:18:30.204Z,41.21
2018-12-12T03:20:57.939Z,41.04
2018-12-12T03:23:25.056Z,41.53
2018-12-12T03:25:52.057Z,41.67
2018-12-12T03:28:19.988Z,41.63
2018-12-12T03:30:48.021Z,41.80
2018-12-12T03:33:15.899Z,42.08
2018-12-12T03:35:43.236Z,41.66
2018-12-12T03:38:11.455Z,42.25
2018-12-12T03:40:38.945Z,42.66
2018-12-12T03:43:06.184Z,43.22
2018-12-12T03:45:32.674Z,42.79
2018-12-12T03:47:59.723Z,42.30
2018-12-12T03:50:27.488Z,43.07
2018-12-12T03:52:54.048Z,42.11
2018-12-12T03:55:20.922Z,42.51
2018-12-12T03:57:47.383Z,42.20
2018-12-12T04:00:14.495Z,42.61
2018-12-12T04:02:41.714Z,42.08
2018-12-12T04:05:08.147Z,42.53
2018-12-12T04:07:35.550Z,43.00
2018-12-12T04:10:02.812Z,42.67
2018-12-12T04:12:30.088Z,42.39
2018-12-12T04:14:57.557Z,41.35
2018-12-12T04:17:25.726Z,41.27
2018-12-12T04:19:52.843Z,41.69
2018-12-12T04:22:24.208Z,41.66
2018-12-12T04:24:52.444Z,42.39
2018-12-12T04:27:21.788Z,42.05
2018-12-12T04:29:49.116Z,40.98
2018-12-12T04:32:15.877Z,42.39
2018-12-12T04:34:43.798Z,42.94
2018-12-12T04:37:11.936Z,41.47
2018-12-12T04:39:39.193Z,42.06
2018-12-12T04:42:07.930Z,41.59
2018-12-12T04:44:34.933Z,41.44
2018-12-12T04:47:02.343Z,42.54
2018-12-12T04:49:29.797Z,42.15
2018-12-12T04:51:57.576Z,42.69
2018-12-12T04:54:24.241Z,42.39
2018-12-12T04:56:52.225Z,42.42
2018-12-12T04:59:20.877Z,42.79
2018-12-12T05:01:48.996Z,43.33
2018-12-12T05:06:50.570Z,43.33
2018-12-12T05:09:17.824Z,43.34
2018-12-12T05:11:44.946Z,43.62
2018-12-12T05:14:12.909Z,43.40
2018-12-12T05:16:40.343Z,44.08
2018-12-12T05:19:07.861Z,43.97
2018-12-12T05:21:36.195Z,44.03
2018-12-12T05:24:03.594Z,42.80
2018-12-12T05:26:30.791Z,42.40
2018-12-12T05:28:59.696Z,42.62
2018-12-12T05:31:28.390Z,43.27
2018-12-12T05:33:55.545Z,44.37
2018-12-12T05:36:22.022Z,43.91
2018-12-12T05:38:50.997Z,43.71
2018-12-12T05:41:17.481Z,44.06
2018-12-12T05:43:45.690Z,43.82
2018-12-12T05:46:13.652Z,44.27
2018-12-12T05:48:40.601Z,43.91
2018-12-12T05:51:09.010Z,44.45
2018-12-12T05:53:36.007Z,44.11
2018-12-12T05:56:03.521Z,43.83
2018-12-12T05:58:30.086Z,43.81
2018-12-12T06:00:58.096Z,43.58
2018-12-12T06:03:24.550Z,43.97
2018-12-12T06:05:51.258Z,44.00
2018-12-12T06:08:20.328Z,43.58
2018-12-12T06:10:49.579Z,43.88
2018-12-12T06:13:16.787Z,43.54
2018-12-12T06:15:43.947Z,43.83
2018-12-12T06:18:11.881Z,43.87
2018-12-12T06:20:39.227Z,43.13
2018-12-12T06:23:07.201Z,43.64
2018-12-12T06:25:34.543Z,43.51
2018-12-12T06:28:03.004Z,43.50
2018-12-12T06:30:30.974Z,43.76
2018-12-12T06:32:58.932Z,43.71
2018-12-12T06:35:25.416Z,43.41
2018-12-12T06:37:53.306Z,44.13
2018-12-12T06:40:19.981Z,43.71
2018-12-12T06:42:48.186Z,43.46
2018-12-12T06:45:16.258Z,43.54
2018-12-12T06:47:43.315Z,43.79
2018-12-12T06:50:10.315Z,42.98
2018-12-12T06:52:38.079Z,42.96
2018-12-12T06:55:06.522Z,43.31
2018-12-12T06:57:34.805Z,43.75
2018-12-12T07:00:01.950Z,43.08
2018-12-12T07:02:28.400Z,41.99
2018-12-12T07:04:56.094Z,42.06
2018-12-12T07:07:24.580Z,42.00
2018-12-12T07:09:52.099Z,42.53
2018-12-12T07:12:19.777Z,41.44
2018-12-12T07:14:46.893Z,42.26
2018-12-12T07:17:14.738Z,42.96
2018-12-12T07:19:42.707Z,42.90
2018-12-12T07:22:09.958Z,43.15
2018-12-12T07:24:37.286Z,43.05
2018-12-12T07:27:03.873Z,43.93
2018-12-12T07:29:32.516Z,43.85
2018-12-12T07:31:59.549Z,44.04
2018-12-12T07:34:27.752Z,43.76
2018-12-12T07:36:55.520Z,42.97
2018-12-12T07:39:22.613Z,42.52
2018-12-12T07:41:50.058Z,42.85
2018-12-12T07:44:16.762Z,43.06
2018-12-12T07:46:44.678Z,42.46
2018-12-12T07:49:16.642Z,43.53
2018-12-12T07:51:45.192Z,43.65
2018-12-12T07:54:14.391Z,43.25
2018-12-12T07:56:42.124Z,41.74
2018-12-12T07:59:09.647Z,41.49
2018-12-12T08:01:36.939Z,42.08
2018-12-12T08:04:04.381Z,41.63
2018-12-12T08:06:32.488Z,41.70
2018-12-12T08:08:59.895Z,41.01
2018-12-12T08:11:27.955Z,40.90
2018-12-12T08:13:55.106Z,40.63
2018-12-12T08:16:23.691Z,41.04
2018-12-12T08:18:51.183Z,40.81
2018-12-12T08:21:17.860Z,41.29
2018-12-12T08:23:44.587Z,41.11
2018-12-12T08:26:13.814Z,41.49
2018-12-12T08:28:41.342Z,41.44
2018-12-12T08:31:08.520Z,41.43
2018-12-12T08:33:37.056Z,41.06
2018-12-12T08:36:05.674Z,41.94
2018-12-12T08:38:33.492Z,41.09
2018-12-12T08:41:01.714Z,40.95
2018-12-12T08:43:28.173Z,40.64
2018-12-12T08:45:55.549Z,41.09
2018-12-12T08:48:22.503Z,41.21
2018-12-12T08:50:50.882Z,41.21
2018-12-12T08:53:18.845Z,41.08
2018-12-12T08:55:46.222Z,41.31
2018-12-12T08:58:15.250Z,41.03
2018-12-12T09:00:43.192Z,41.21
2018-12-12T09:03:10.370Z,41.25
2018-12-12T09:05:37.666Z,40.58
2018-12-12T09:08:08.350Z,41.66
2018-12-12T09:10:37.282Z,40.86
2018-12-12T09:13:05.638Z,41.04
2018-12-12T09:15:33.120Z,40.75
2018-12-12T09:17:59.565Z,41.43
2018-12-12T09:20:27.424Z,41.08
2018-12-12T09:22:55.862Z,40.93
2018-12-12T09:25:22.865Z,41.26
2018-12-12T09:27:50.413Z,41.27
2018-12-12T09:30:19.348Z,41.22
2018-12-12T09:32:47.777Z,41.76
2018-12-12T09:35:15.519Z,41.48
2018-12-12T09:37:44.909Z,41.22
2018-12-12T09:40:12.759Z,41.34
2018-12-12T09:45:10.922Z,41.98
2018-12-12T09:47:37.384Z,42.62
2018-12-12T09:50:03.806Z,42.90
2018-12-12T09:52:30.257Z,42.53
2018-12-12T09:54:56.978Z,41.78
2018-12-12T09:57:23.405Z,41.33
2018-12-12T09:59:49.871Z,42.33
2018-12-12T10:02:16.450Z,42.14
2018-12-12T10:04:42.870Z,42.94
2018-12-12T10:07:09.343Z,42.26
2018-12-12T10:09:35.800Z,42.29
2018-12-12T10:12:02.229Z,42.50
2018-12-12T10:14:28.696Z,42.31
2018-12-12T10:16:55.140Z,42.50
2018-12-12T10:19:21.575Z,41.68
2018-12-12T10:21:48.078Z,41.67
2018-12-12T10:24:14.525Z,42.33
2018-12-12T10:26:40.964Z,40.41
2018-12-12T10:29:07.467Z,40.80
2018-12-12T10:31:33.928Z,40.70
2018-12-12T10:34:00.368Z,40.07
2018-12-12T10:36:26.825Z,40.97
2018-12-12T10:38:53.284Z,40.01
2018-12-12T10:41:19.742Z,40.22
2018-12-12T10:43:46.735Z,40.72
2018-12-12T10:46:13.187Z,40.47
2018-12-12T10:48:39.656Z,40.49
2018-12-12T10:51:06.141Z,40.57
2018-12-12T10:53:32.665Z,40.17
2018-12-12T10:55:59.345Z,39.73
2018-12-12T10:58:25.786Z,39.88
2018-12-12T11:00:52.220Z,39.39
2018-12-12T11:03:18.657Z,40.62
2018-12-12T11:05:45.172Z,40.17
2018-12-12T11:08:12.124Z,39.88
2018-12-12T11:10:39.224Z,40.08
2018-12-12T11:13:05.683Z,38.81
2018-12-12T11:15:32.128Z,38.71
2018-12-12T11:17:58.666Z,38.94
2018-12-12T11:20:25.132Z,39.88
2018-12-12T11:22:51.580Z,40.76
2018-12-12T11:25:18.039Z,40.03
2018-12-12T11:27:44.521Z,39.77
2018-12-12T11:30:10.977Z,41.28
2018-12-12T11:32:37.442Z,40.37
2018-12-12T11:35:03.920Z,40.07
2018-12-12T11:37:30.348Z,38.85
2018-12-12T11:39:56.816Z,39.17
2018-12-12T11:42:23.270Z,37.66
2018-12-12T11:44:49.714Z,38.68
2018-12-12T11:47:17.007Z,39.10
2018-12-12T11:49:43.498Z,38.95
2018-12-12T11:52:09.992Z,37.20
2018-12-12T11:54:36.449Z,37.73
2018-12-12T11:57:02.898Z,38.22
2018-12-12T11:59:29.384Z,38.67
2018-12-12T12:01:55.832Z,38.54
2018-12-12T12:04:22.279Z,37.45
2018-12-12T12:06:48.718Z,36.41
2018-12-12T12:09:15.199Z,37.11
2018-12-12T12:11:41.661Z,37.35
2018-12-12T12:14:08.100Z,38.54
2018-12-12T12:16:34.568Z,38.31
2018-12-12T12:19:01.019Z,38.88
2018-12-12T12:21:27.441Z,38.66
2018-12-12T12:23:53.880Z,37.79
2018-12-12T12:26:20.421Z,39.05
2018-12-12T12:28:47.346Z,39.61
2018-12-12T12:31:13.822Z,38.57
2018-12-12T12:33:40.274Z,40.13
2018-12-12T12:36:06.722Z,39.96
2018-12-12T12:38:33.153Z,40.28
2018-12-12T12:40:59.609Z,41.03
2018-12-12T12:43:26.066Z,41.44
2018-12-12T12:45:52.519Z,41.76
2018-12-12T12:48:19.307Z,40.93
2018-12-12T12:50:45.744Z,40.62
2018-12-12T12:53:12.181Z,41.64
2018-12-12T12:55:38.816Z,43.21
2018-12-12T12:58:05.274Z,42.60
2018-12-12T13:00:31.704Z,42.97
2018-12-12T13:02:58.170Z,44.32
2018-12-12T13:05:24.605Z,45.46
2018-12-12T13:07:51.038Z,45.20
2018-12-12T13:10:17.751Z,46.69
2018-12-12T13:12:44.243Z,44.85
2018-12-12T13:15:10.695Z,43.37
2018-12-12T13:17:37.191Z,42.72
2018-12-12T13:20:03.629Z,42.76
2018-12-12T13:22:30.059Z,42.51
2018-12-12T13:24:56.518Z,42.01
2018-12-12T13:27:22.957Z,41.33
2018-12-12T13:29:49.647Z,40.89
2018-12-12T13:32:16.119Z,40.78
2018-12-12T13:34:42.587Z,40.23
2018-12-12T13:37:09.043Z,40.55
2018-12-12T13:39:35.574Z,41.16
2018-12-12T13:42:02.016Z,40.44
2018-12-12T13:44:28.438Z,39.75
2018-12-12T13:46:54.888Z,40.85
2018-12-12T13:49:21.326Z,41.19
2018-12-12T13:51:48.055Z,41.24
2018-12-12T13:54:14.536Z,41.68
2018-12-12T13:56:41.025Z,41.49
2018-12-12T13:59:07.453Z,42.13
2018-12-12T14:01:33.918Z,41.80
2018-12-12T14:04:00.411Z,40.97
2018-12-12T14:06:27.779Z,41.83
2018-12-12T14:08:54.941Z,41.90
2018-12-12T14:11:21.676Z,41.13
2018-12-12T14:13:48.417Z,41.64
2018-12-12T14:16:14.943Z,41.56
2018-12-12T14:18:41.488Z,40.67
2018-12-12T14:21:08.453Z,41.88
2018-12-12T14:23:35.521Z,42.72
2018-12-12T14:26:01.978Z,42.61
2018-12-12T14:28:28.445Z,42.54
2018-12-12T14:30:55.549Z,43.79
2018-12-12T14:33:22.345Z,42.80
2018-12-12T14:35:48.796Z,42.76
2018-12-12T14:38:15.275Z,42.33
2018-12-12T14:40:41.704Z,42.54
2018-12-12T14:43:08.145Z,43.13
2018-12-12T14:45:34.649Z,42.77
2018-12-12T14:48:01.070Z,43.18
2018-12-12T14:50:27.535Z,43.25
2018-12-12T14:52:53.990Z,43.26
2018-12-12T14:55:20.428Z,44.35
2018-12-12T14:57:46.871Z,43.99
2018-12-12T15:00:13.342Z,44.68
2018-12-12T15:02:39.791Z,44.60
2018-12-12T15:05:06.304Z,44.34
2018-12-12T15:07:32.782Z,44.10
2018-12-12T15:09:59.213Z,44.87
2018-12-12T15:12:25.650Z,44.42
2018-12-12T15:14:52.156Z,45.04
2018-12-12T15:17:18.595Z,45.00
2018-12-12T15:19:45.020Z,45.73
2018-12-12T15:22:11.468Z,46.30
2018-12-12T15:24:37.889Z,45.74
2018-12-12T15:27:04.335Z,46.32
2018-12-12T15:29:30.770Z,46.32
2018-12-12T15:31:57.240Z,48.08
2018-12-12T15:34:23.699Z,47.41
2018-12-12T15:36:50.138Z,46.93
2018-12-12T15:39:16.678Z,47.77
2018-12-12T15:41:43.149Z,48.27
2018-12-12T15:44:09.639Z,48.71
2018-12-12T15:46:36.083Z,49.40
2018-12-12T15:49:02.522Z,49.29
2018-12-12T15:51:28.999Z,48.41
2018-12-12T15:53:55.438Z,48.59
2018-12-12T15:56:21.926Z,48.11
2018-12-12T15:58:48.927Z,48.52
2018-12-12T16:01:15.401Z,48.06
2018-12-12T16:03:41.854Z,48.01
2018-12-12T16:06:08.305Z,48.26
2018-12-12T16:08:34.738Z,47.30
2018-12-12T16:11:01.173Z,47.57
2018-12-12T16:13:27.667Z,47.41
2018-12-12T16:15:54.411Z,47.78
2018-12-12T16:18:20.888Z,49.00
2018-12-12T16:20:47.351Z,50.20
2018-12-12T16:23:13.824Z,51.36
2018-12-12T16:25:40.283Z,50.72
2018-12-12T16:28:06.767Z,50.23
2018-12-12T16:30:33.236Z,50.05
2018-12-12T16:33:00.217Z,50.14
2018-12-12T16:35:26.940Z,49.46
2018-12-12T16:37:53.584Z,50.10
2018-12-12T16:40:20.032Z,50.79
2018-12-12T16:42:46.512Z,52.03
2018-12-12T16:45:12.952Z,51.87
2018-12-12T16:47:39.395Z,50.23
2018-12-12T16:50:05.884Z,49.58
2018-12-12T16:52:32.349Z,49.40
2018-12-12T16:54:58.824Z,51.78
2018-12-12T16:57:25.295Z,50.97
2018-12-12T16:59:51.749Z,51.50
2018-12-12T17:02:19.252Z,51.08
2018-12-12T17:04:45.683Z,50.32
2018-12-12T17:07:12.099Z,50.48
2018-12-12T17:09:38.598Z,50.54
2018-12-12T17:12:05.321Z,50.90
2018-12-12T17:14:31.791Z,51.78
2018-12-12T17:16:58.220Z,52.18
2018-12-12T17:19:24.899Z,51.81
2018-12-12T17:21:51.413Z,51.56
2018-12-12T17:24:17.911Z,51.07
2018-12-12T17:26:44.371Z,51.07
2018-12-12T17:29:10.836Z,51.40
2018-12-12T17:31:37.267Z,52.26
2018-12-12T17:34:03.834Z,52.51
2018-12-12T17:36:30.252Z,52.06
2018-12-12T17:38:56.697Z,51.61
2018-12-12T17:41:23.149Z,50.85
2018-12-12T17:43:49.616Z,50.50
2018-12-12T17:46:16.069Z,49.17
2018-12-12T17:48:42.501Z,49.35
2018-12-12T17:51:08.964Z,49.92
2018-12-12T17:53:35.420Z,50.45
2018-12-12T17:56:01.875Z,50.19
2018-12-12T17:58:28.298Z,50.08
2018-12-12T18:00:54.737Z,49.97
2018-12-12T18:03:21.190Z,50.28
2018-12-12T18:05:47.656Z,50.90
2018-12-12T18:08:14.074Z,50.78
2018-12-12T18:10:40.560Z,50.93
2018-12-12T18:13:07.764Z,50.78
2018-12-12T18:15:34.199Z,50.92
2018-12-12T18:18:00.642Z,51.27
2018-12-12T18:20:27.112Z,51.11
2018-12-12T18:22:53.554Z,51.70
2018-12-12T18:25:20.011Z,51.10
2018-12-12T18:27:49.730Z,51.67
2018-12-12T18:30:19.972Z,51.89
2018-12-12T18:32:47.729Z,52.55
2018-12-12T18:35:21.646Z,52.48
2018-12-12T18:37:46.724Z,52.21
2018-12-12T18:40:13.791Z,51.63
2018-12-12T18:42:41.275Z,52.12
2018-12-12T18:45:09.333Z,52.05
2018-12-12T18:47:37.350Z,52.68
2018-12-12T18:50:04.365Z,52.19
2018-12-12T18:52:32.147Z,51.73
2018-12-12T18:55:00.399Z,51.53
2018-12-12T18:57:28.506Z,51.33
2018-12-12T18:59:56.096Z,51.85
2018-12-12T19:02:22.634Z,52.04
2018-12-12T19:04:51.144Z,51.79
2018-12-12T19:07:20.867Z,51.52
2018-12-12T19:12:28.583Z,52.02
2018-12-12T19:14:58.844Z,52.48
2018-12-12T19:19:58.819Z,52.60
2018-12-12T19:22:27.149Z,52.97
2018-12-12T19:24:55.266Z,52.82
2018-12-12T19:27:23.730Z,52.54
2018-12-12T19:29:52.026Z,53.06
2018-12-12T19:32:18.486Z,53.24
2018-12-12T19:34:49.880Z,52.97
2018-12-12T19:37:17.287Z,52.75
2018-12-12T19:39:43.954Z,52.07
2018-12-12T19:42:10.738Z,51.84
2018-12-12T19:44:38.072Z,51.81
2018-12-12T19:47:05.911Z,52.37
2018-12-12T19:49:33.054Z,52.59
2018-12-12T19:52:01.381Z,52.95
2018-12-12T19:54:29.988Z,52.79
2018-12-12T19:56:57.106Z,52.99
2018-12-12T19:59:25.146Z,54.03
2018-12-12T20:01:53.086Z,53.44
2018-12-12T20:04:21.854Z,53.04
2018-12-12T20:06:48.847Z,53.11
2018-12-12T20:09:16.319Z,53.10
2018-12-12T20:11:44.518Z,53.10
2018-12-12T20:14:11.864Z,52.97
2018-12-12T20:16:40.509Z,54.13
2018-12-12T20:19:08.413Z,55.34
2018-12-12T20:21:36.325Z,57.25
2018-12-12T20:24:03.812Z,58.03
2018-12-12T20:26:31.801Z,56.64
2018-12-12T20:28:58.700Z,55.29
2018-12-12T20:31:25.939Z,54.94
2018-12-12T20:33:52.747Z,54.97
2018-12-12T20:36:21.751Z,55.44
2018-12-12T20:38:49.950Z,55.32
2018-12-12T20:41:17.578Z,55.68
2018-12-12T20:43:44.265Z,55.17
2018-12-12T20:46:11.882Z,54.95
2018-12-12T20:48:39.767Z,55.01
2018-12-12T20:51:07.914Z,55.07
2018-12-12T20:53:35.545Z,55.52
2018-12-12T20:56:03.418Z,55.26
2018-12-12T20:58:31.443Z,55.75
2018-12-12T21:00:59.314Z,56.06
2018-12-12T21:03:26.126Z,55.33
2018-12-12T21:05:54.844Z,55.47
2018-12-12T21:08:24.044Z,54.75
2018-12-12T21:10:51.430Z,55.91
2018-12-12T21:13:17.870Z,55.73
2018-12-12T21:15:45.328Z,55.56
2018-12-12T21:18:13.254Z,56.19
2018-12-12T21:20:40.394Z,56.37
2018-12-12T21:23:08.101Z,56.15
2018-12-12T21:25:36.206Z,55.52
2018-12-12T21:28:03.674Z,55.36
2018-12-12T21:30:31.288Z,55.16
2018-12-12T21:32:59.383Z,55.18
2018-12-12T21:35:27.402Z,55.14
2018-12-12T21:37:54.516Z,54.82
2018-12-12T21:40:22.695Z,54.88
2018-12-12T21:42:51.775Z,56.58
2018-12-12T21:52:57.235Z,57.03
2018-12-12T21:55:24.234Z,57.05
2018-12-12T21:57:52.965Z,56.49
2018-12-12T22:00:19.423Z,56.23
2018-12-12T22:02:47.214Z,56.40
2018-12-12T22:05:14.596Z,56.91
2018-12-12T22:07:41.570Z,57.48
2018-12-12T22:10:08.917Z,57.19
2018-12-12T22:12:35.382Z,56.79
2018-12-12T22:15:03.348Z,56.78
2018-12-12T22:17:32.914Z,56.55
2018-12-12T22:20:01.735Z,56.61
2018-12-12T22:22:29.968Z,56.78
2018-12-12T22:24:56.928Z,56.83
2018-12-12T22:27:24.095Z,56.98
2018-12-12T22:29:52.477Z,56.49
2018-12-12T22:32:20.163Z,56.44
2018-12-12T22:34:47.208Z,56.55
2018-12-12T22:37:14.578Z,56.51
2018-12-12T22:39:41.286Z,55.88
2018-12-12T22:42:09.941Z,55.95
2018-12-12T22:44:36.907Z,55.88
2018-12-12T22:47:04.629Z,55.93
2018-12-12T22:49:32.807Z,56.33
2018-12-12T22:52:00.408Z,56.68
2018-12-12T22:54:28.136Z,56.86
2018-12-12T22:56:54.621Z,56.95
2018-12-12T22:59:23.471Z,57.11
2018-12-12T23:01:54.489Z,56.98
2018-12-12T23:04:22.106Z,56.99
2018-12-12T23:06:49.350Z,56.53
2018-12-12T23:09:15.794Z,56.74
2018-12-12T23:11:44.059Z,56.89
2018-12-12T23:14:11.292Z,56.92
2018-12-12T23:16:38.668Z,56.91
2018-12-12T23:19:05.970Z,56.92
2018-12-12T23:21:35.534Z,57.42
2018-12-12T23:24:03.066Z,57.13
2018-12-12T23:26:30.431Z,57.92
2018-12-12T23:28:59.067Z,57.83
2018-12-12T23:31:27.807Z,57.23
2018-12-12T23:33:55.595Z,57.18
2018-12-12T23:36:27.026Z,56.53
2018-12-12T23:38:54.277Z,56.20
2018-12-12T23:41:22.792Z,56.38
2018-12-12T23:43:50.046Z,55.82
2018-12-12T23:46:18.511Z,56.00
2018-12-12T23:48:46.242Z,56.22
2018-12-12T23:51:12.921Z,56.70
2018-12-12T23:53:41.024Z,56.97
2018-12-12T23:56:08.553Z,56.84
2018-12-12T23:58:36.772Z,57.02
